createdAt,value
2018-01-24T00:00:59.778Z,7.70
2018-01-24T00:03:29.157Z,7.70
2018-01-24T00:05:57.457Z,7.70
2018-01-24T00:08:26.497Z,7.70
2018-01-24T00:10:54.896Z,7.70
2018-01-24T00:13:23.257Z,7.70
2018-01-24T00:15:51.758Z,7.70
2018-01-24T00:18:19.817Z,7.70
2018-01-24T00:20:48.298Z,7.70
2018-01-24T00:23:16.677Z,7.60
2018-01-24T00:25:44.758Z,7.70
2018-01-24T00:28:12.858Z,7.70
2018-01-24T00:30:41.098Z,7.70
2018-01-24T00:33:09.277Z,7.70
2018-01-24T00:35:37.579Z,7.80
2018-01-24T00:38:06.858Z,7.80
2018-01-24T00:40:35.318Z,7.80
2018-01-24T00:43:03.718Z,7.90
2018-01-24T00:45:32.997Z,7.90
2018-01-24T00:48:01.377Z,7.90
2018-01-24T00:50:29.658Z,7.90
2018-01-24T00:52:58.157Z,7.90
2018-01-24T00:55:27.738Z,8.10
2018-01-24T00:57:56.417Z,8.00
2018-01-24T01:00:24.821Z,8.10
2018-01-24T01:02:53.818Z,8.00
2018-01-24T01:05:22.857Z,8.00
2018-01-24T01:07:51.438Z,8.00
2018-01-24T01:10:20.038Z,8.00
2018-01-24T01:12:48.178Z,8.00
2018-01-24T01:15:16.397Z,8.00
2018-01-24T01:17:44.998Z,8.10
2018-01-24T01:20:14.238Z,8.10
2018-01-24T01:22:42.978Z,8.10
2018-01-24T01:25:11.118Z,8.10
2018-01-24T01:27:39.517Z,8.10
2018-01-24T01:30:08.358Z,8.10
2018-01-24T01:32:36.777Z,8.10
2018-01-24T01:35:04.918Z,8.10
2018-01-24T01:37:33.041Z,8.10
2018-01-24T01:40:01.517Z,8.10
2018-01-24T01:42:29.717Z,8.00
2018-01-24T01:44:58.699Z,8.10
2018-01-24T01:47:27.877Z,8.10
2018-01-24T01:49:56.358Z,8.00
2018-01-24T01:52:26.158Z,8.10
2018-01-24T01:54:54.857Z,8.10
2018-01-24T01:57:22.997Z,8.10
2018-01-24T01:59:51.198Z,8.00
2018-01-24T02:02:19.278Z,8.00
2018-01-24T02:04:48.477Z,8.20
2018-01-24T02:07:17.058Z,8.20
2018-01-24T02:09:45.537Z,8.30
2018-01-24T02:12:13.858Z,8.30
2018-01-24T02:14:42.380Z,8.30
2018-01-24T02:17:10.758Z,8.20
2018-01-24T02:19:39.457Z,8.20
2018-01-24T02:22:07.518Z,8.20
2018-01-24T02:24:35.898Z,8.20
2018-01-24T02:27:04.277Z,8.30
2018-01-24T02:29:33.477Z,8.30
2018-01-24T02:32:01.764Z,8.30
2018-01-24T02:34:30.938Z,8.30
2018-01-24T02:36:59.098Z,8.30
2018-01-24T02:39:27.398Z,8.30
2018-01-24T02:41:55.539Z,8.30
2018-01-24T02:44:23.898Z,8.30
2018-01-24T02:46:52.018Z,8.30
2018-01-24T02:49:20.698Z,8.30
2018-01-24T02:51:48.779Z,8.30
2018-01-24T02:54:17.977Z,8.30
2018-01-24T02:56:47.057Z,8.40
2018-01-24T02:59:15.038Z,8.40
2018-01-24T03:01:43.518Z,8.40
2018-01-24T03:04:11.858Z,8.40
2018-01-24T03:06:40.158Z,8.40
2018-01-24T03:09:08.337Z,8.50
2018-01-24T03:11:37.158Z,8.50
2018-01-24T03:14:05.737Z,8.50
2018-01-24T03:16:35.117Z,8.50
2018-01-24T03:19:03.798Z,8.50
2018-01-24T03:21:31.957Z,8.50
2018-01-24T03:24:00.457Z,8.60
2018-01-24T03:26:29.778Z,8.70
2018-01-24T03:28:58.178Z,8.60
2018-01-24T03:31:26.245Z,8.60
2018-01-24T03:33:54.578Z,8.70
2018-01-24T03:36:22.938Z,8.70
2018-01-24T03:38:51.097Z,8.70
2018-01-24T03:41:19.679Z,8.70
2018-01-24T03:43:48.078Z,8.70
2018-01-24T03:46:17.937Z,8.80
2018-01-24T03:48:46.058Z,8.80
2018-01-24T03:51:15.879Z,8.70
2018-01-24T03:53:43.938Z,8.70
2018-01-24T03:56:12.117Z,8.70
2018-01-24T03:58:40.378Z,8.70
2018-01-24T04:01:08.884Z,8.70
2018-01-24T04:03:37.458Z,8.60
2018-01-24T04:06:05.637Z,8.70
2018-01-24T04:08:33.798Z,8.60
2018-01-24T04:11:02.797Z,8.60
2018-01-24T04:13:30.859Z,8.60
2018-01-24T04:15:59.237Z,8.60
2018-01-24T04:18:27.499Z,8.60
2018-01-24T04:20:55.698Z,8.60
2018-01-24T04:23:24.298Z,8.60
2018-01-24T04:25:53.818Z,8.60
2018-01-24T04:28:21.857Z,8.60
2018-01-24T04:30:50.338Z,8.60
2018-01-24T04:33:18.818Z,8.70
2018-01-24T04:35:47.297Z,8.70
2018-01-24T04:38:15.358Z,8.70
2018-01-24T04:40:43.618Z,8.70
2018-01-24T04:43:11.858Z,8.70
2018-01-24T04:45:40.098Z,8.70
2018-01-24T04:48:08.357Z,8.70
2018-01-24T04:50:36.917Z,8.80
2018-01-24T04:53:05.217Z,8.80
2018-01-24T04:55:33.478Z,8.70
2018-01-24T04:58:02.078Z,8.70
2018-01-24T05:00:30.317Z,8.70
2018-01-24T05:02:58.918Z,8.70
2018-01-24T05:05:27.098Z,8.70
2018-01-24T05:07:55.438Z,8.70
2018-01-24T05:10:23.618Z,8.70
2018-01-24T05:12:52.138Z,8.70
2018-01-24T05:15:20.417Z,8.70
2018-01-24T05:17:48.898Z,8.70
2018-01-24T05:20:17.198Z,8.70
2018-01-24T05:22:46.357Z,8.80
2018-01-24T05:25:14.497Z,8.80
2018-01-24T05:27:42.678Z,8.80
2018-01-24T05:30:11.038Z,8.80
2018-01-24T05:32:39.477Z,8.70
2018-01-24T05:35:08.578Z,8.80
2018-01-24T05:37:37.639Z,8.80
2018-01-24T05:40:05.819Z,8.80
2018-01-24T05:42:34.060Z,8.80
2018-01-24T05:45:02.680Z,8.70
2018-01-24T05:47:31.300Z,8.70
2018-01-24T05:50:00.580Z,8.70
2018-01-24T05:52:28.980Z,8.70
2018-01-24T05:54:58.259Z,8.70
2018-01-24T05:57:26.848Z,8.60
2018-01-24T05:59:55.923Z,8.50
2018-01-24T06:02:24.380Z,8.40
2018-01-24T06:04:52.769Z,8.30
2018-01-24T06:07:20.849Z,8.10
2018-01-24T06:09:49.109Z,8.10
2018-01-24T06:12:17.517Z,8.00
2018-01-24T06:14:45.776Z,8.10
2018-01-24T06:17:14.057Z,8.20
2018-01-24T06:19:42.317Z,8.30
2018-01-24T06:22:10.717Z,8.30
2018-01-24T06:24:38.897Z,8.30
2018-01-24T06:27:07.877Z,8.40
2018-01-24T06:29:36.157Z,8.40
2018-01-24T06:32:04.538Z,8.50
2018-01-24T06:34:33.140Z,8.40
2018-01-24T06:37:02.118Z,8.50
2018-01-24T06:39:31.309Z,8.40
2018-01-24T06:42:00.388Z,8.40
2018-01-24T06:44:28.749Z,8.40
2018-01-24T06:46:57.229Z,8.40
2018-01-24T06:49:25.869Z,8.20
2018-01-24T06:51:55.249Z,7.80
2018-01-24T06:54:24.630Z,7.90
2018-01-24T06:56:53.169Z,7.90
2018-01-24T06:59:21.609Z,7.90
2018-01-24T07:01:50.089Z,7.90
2018-01-24T07:04:18.089Z,7.80
2018-01-24T07:06:46.189Z,7.90
2018-01-24T07:09:14.214Z,7.80
2018-01-24T07:11:43.289Z,7.70
2018-01-24T07:14:23.529Z,7.70
2018-01-24T07:16:51.829Z,7.80
2018-01-24T07:19:19.989Z,7.90
2018-01-24T07:21:48.169Z,7.90
2018-01-24T07:24:16.428Z,8.00
2018-01-24T07:26:44.569Z,8.00
2018-01-24T07:29:12.668Z,7.90
2018-01-24T07:31:40.849Z,7.80
2018-01-24T07:34:09.229Z,7.80
2018-01-24T07:36:37.608Z,7.70
2018-01-24T07:39:06.289Z,7.70
2018-01-24T07:41:34.631Z,7.70
2018-01-24T07:44:03.293Z,7.70
2018-01-24T07:46:31.630Z,7.70
2018-01-24T07:48:59.777Z,7.70
2018-01-24T07:51:27.968Z,7.70
2018-01-24T07:53:56.569Z,7.70
2018-01-24T07:56:25.069Z,7.70
2018-01-24T07:58:54.469Z,7.90
2018-01-24T08:01:23.770Z,7.90
2018-01-24T08:03:52.709Z,7.90
2018-01-24T08:06:21.006Z,7.90
2018-01-24T08:08:50.109Z,8.00
2018-01-24T08:11:18.402Z,8.00
2018-01-24T08:13:47.580Z,8.20
2018-01-24T08:16:16.160Z,8.20
2018-01-24T08:18:44.559Z,8.20
2018-01-24T08:21:13.740Z,8.20
2018-01-24T08:23:42.311Z,8.20
2018-01-24T08:26:10.589Z,8.20
2018-01-24T08:28:38.700Z,8.20
2018-01-24T08:31:07.241Z,8.10
2018-01-24T08:33:36.361Z,8.30
2018-01-24T08:36:05.481Z,8.40
2018-01-24T08:38:34.001Z,8.40
2018-01-24T08:41:02.360Z,8.50
2018-01-24T08:43:36.965Z,8.40
2018-01-24T08:45:59.142Z,8.40
2018-01-24T08:48:27.743Z,8.40
2018-01-24T08:50:56.086Z,8.40
2018-01-24T08:53:24.475Z,8.40
2018-01-24T08:55:52.935Z,8.50
2018-01-24T08:58:21.155Z,8.50
2018-01-24T09:00:49.955Z,8.50
2018-01-24T09:03:19.224Z,8.60
2018-01-24T09:05:47.614Z,8.50
2018-01-24T09:08:15.774Z,8.70
2018-01-24T09:10:44.204Z,8.80
2018-01-24T09:13:12.435Z,8.90
2018-01-24T09:15:40.674Z,8.90
2018-01-24T09:18:08.856Z,9.00
2018-01-24T09:20:37.356Z,9.10
2018-01-24T09:23:05.856Z,9.10
2018-01-24T09:25:34.735Z,9.10
2018-01-24T09:28:03.016Z,9.10
2018-01-24T09:30:31.335Z,9.10
2018-01-24T09:32:59.556Z,9.20
2018-01-24T09:35:27.855Z,9.40
2018-01-24T09:37:56.714Z,9.60
2018-01-24T09:40:25.135Z,9.60
2018-01-24T09:42:54.514Z,9.90
2018-01-24T09:45:22.996Z,9.90
2018-01-24T09:47:52.335Z,9.90
2018-01-24T09:50:20.875Z,9.90
2018-01-24T09:52:49.302Z,9.90
2018-01-24T09:55:17.835Z,9.90
2018-01-24T09:57:46.415Z,10.00
2018-01-24T10:00:14.737Z,10.20
2018-01-24T10:02:42.775Z,10.30
2018-01-24T10:05:11.935Z,10.60
2018-01-24T10:07:40.155Z,10.50
2018-01-24T10:10:09.215Z,10.80
2018-01-24T10:12:37.278Z,10.80
2018-01-24T10:15:05.776Z,10.80
2018-01-24T10:17:34.135Z,10.90
2018-01-24T10:20:02.634Z,11.10
2018-01-24T10:22:30.795Z,11.10
2018-01-24T10:24:58.975Z,11.20
2018-01-24T10:27:27.456Z,11.40
2018-01-24T10:29:55.835Z,11.50
2018-01-24T10:32:24.216Z,11.80
2018-01-24T10:34:52.374Z,11.90
2018-01-24T10:37:20.654Z,11.90
2018-01-24T10:39:48.935Z,12.20
2018-01-24T10:42:17.193Z,12.40
2018-01-24T10:44:46.620Z,12.70
2018-01-24T10:47:15.559Z,13.10
2018-01-24T10:49:44.087Z,13.00
2018-01-24T10:52:12.266Z,13.30
2018-01-24T10:54:40.343Z,13.60
2018-01-24T10:57:09.522Z,13.90
2018-01-24T10:59:38.082Z,13.90
2018-01-24T11:02:07.120Z,14.00
2018-01-24T11:04:36.114Z,14.30
2018-01-24T11:07:05.271Z,14.50
2018-01-24T11:09:33.758Z,14.50
2018-01-24T11:12:02.390Z,14.50
2018-01-24T11:14:31.047Z,14.50
2018-01-24T11:16:59.528Z,14.50
2018-01-24T11:19:28.093Z,14.50
2018-01-24T11:21:56.268Z,14.60
2018-01-24T11:24:24.566Z,15.00
2018-01-24T11:26:53.748Z,14.90
2018-01-24T11:29:21.786Z,14.90
2018-01-24T11:31:50.297Z,14.90
2018-01-24T11:34:18.679Z,14.80
2018-01-24T11:36:47.161Z,14.70
2018-01-24T11:39:15.581Z,14.70
2018-01-24T11:41:44.122Z,14.70
2018-01-24T11:44:12.323Z,14.70
2018-01-24T11:46:41.090Z,14.60
2018-01-24T11:49:11.245Z,14.40
2018-01-24T11:51:39.673Z,14.30
2018-01-24T11:54:08.061Z,14.20
2018-01-24T11:56:37.054Z,14.00
2018-01-24T11:59:05.910Z,14.00
2018-01-24T12:01:34.349Z,13.90
2018-01-24T12:04:02.489Z,13.80
2018-01-24T12:06:30.810Z,13.70
2018-01-24T12:08:59.151Z,13.60
2018-01-24T12:11:28.331Z,13.50
2018-01-24T12:13:57.631Z,13.40
2018-01-24T12:16:25.911Z,13.40
2018-01-24T12:18:54.302Z,13.40
2018-01-24T12:21:22.584Z,13.30
2018-01-24T12:23:51.748Z,13.20
2018-01-24T12:26:20.148Z,13.20
2018-01-24T12:28:49.307Z,13.10
2018-01-24T12:31:17.367Z,13.10
2018-01-24T12:33:45.749Z,12.90
2018-01-24T12:36:13.848Z,12.70
2018-01-24T12:38:42.948Z,12.60
2018-01-24T12:41:11.108Z,12.50
2018-01-24T12:43:39.409Z,12.50
2018-01-24T12:46:08.529Z,12.30
2018-01-24T12:48:36.969Z,12.30
2018-01-24T12:51:05.147Z,12.20
2018-01-24T12:53:33.528Z,12.30
2018-01-24T12:56:01.687Z,12.20
2018-01-24T12:58:29.907Z,12.20
2018-01-24T13:00:58.048Z,12.20
2018-01-24T13:03:26.329Z,12.10
2018-01-24T13:05:55.307Z,11.90
2018-01-24T13:08:24.055Z,11.90
2018-01-24T13:10:52.487Z,11.90
2018-01-24T13:13:21.808Z,11.90
2018-01-24T13:15:50.390Z,11.90
2018-01-24T13:18:18.807Z,12.00
2018-01-24T13:20:47.349Z,12.10
2018-01-24T13:23:15.594Z,12.10
2018-01-24T13:25:44.085Z,12.10
2018-01-24T13:28:13.425Z,12.10
2018-01-24T13:30:41.544Z,12.10
2018-01-24T13:33:09.704Z,12.20
2018-01-24T13:35:38.027Z,12.10
2018-01-24T13:38:06.365Z,12.20
2018-01-24T13:40:34.533Z,12.10
2018-01-24T13:43:02.714Z,12.10
2018-01-24T13:45:30.993Z,12.10
2018-01-24T13:47:59.475Z,12.10
2018-01-24T13:50:28.073Z,12.10
2018-01-24T13:52:57.573Z,12.00
2018-01-24T13:55:26.534Z,11.90
2018-01-24T13:57:54.857Z,11.90
2018-01-24T14:00:24.016Z,11.80
2018-01-24T14:02:52.302Z,11.80
2018-01-24T14:05:21.426Z,11.90
2018-01-24T14:07:50.077Z,11.90
2018-01-24T14:10:20.356Z,12.10
2018-01-24T14:12:48.897Z,12.10
2018-01-24T14:15:18.078Z,12.20
2018-01-24T14:17:46.558Z,12.20
2018-01-24T14:20:14.897Z,12.30
2018-01-24T14:22:43.517Z,12.60
2018-01-24T14:25:11.956Z,12.60
2018-01-24T14:27:40.285Z,12.60
2018-01-24T14:30:08.363Z,12.60
2018-01-24T14:32:37.445Z,12.60
2018-01-24T14:35:05.985Z,12.60
2018-01-24T14:37:34.404Z,12.50
2018-01-24T14:40:02.686Z,12.50
2018-01-24T14:42:31.065Z,12.50
2018-01-24T14:44:59.326Z,12.40
2018-01-24T14:47:27.703Z,12.40
2018-01-24T14:49:55.984Z,12.30
2018-01-24T14:52:24.984Z,12.20
2018-01-24T14:54:53.378Z,12.20
2018-01-24T14:57:22.635Z,12.00
2018-01-24T14:59:51.276Z,12.00
2018-01-24T15:02:19.652Z,11.90
2018-01-24T15:04:47.802Z,11.80
2018-01-24T15:07:16.979Z,11.70
2018-01-24T15:09:45.343Z,11.70
2018-01-24T15:12:13.849Z,11.70
2018-01-24T15:14:41.911Z,11.60
2018-01-24T15:17:11.195Z,11.70
2018-01-24T15:19:39.474Z,11.70
2018-01-24T15:22:07.761Z,11.60
2018-01-24T15:24:36.243Z,11.60
2018-01-24T15:27:04.421Z,11.50
2018-01-24T15:29:32.623Z,11.50
2018-01-24T15:32:00.862Z,11.50
2018-01-24T15:34:29.300Z,11.50
2018-01-24T15:36:57.481Z,11.50
2018-01-24T15:39:25.703Z,11.50
2018-01-24T15:41:54.138Z,11.50
2018-01-24T15:44:22.258Z,11.50
2018-01-24T15:46:51.361Z,11.50
2018-01-24T15:49:20.641Z,11.50
2018-01-24T15:51:49.932Z,11.50
2018-01-24T15:54:18.197Z,11.50
2018-01-24T15:56:46.378Z,11.50
2018-01-24T15:59:14.715Z,11.50
2018-01-24T16:01:42.907Z,11.50
2018-01-24T16:04:11.110Z,11.50
2018-01-24T16:06:39.659Z,11.30
2018-01-24T16:09:08.457Z,11.20
2018-01-24T16:11:36.916Z,11.20
2018-01-24T16:14:05.237Z,11.10
2018-01-24T16:16:33.487Z,11.10
2018-01-24T16:19:02.197Z,11.10
2018-01-24T16:21:30.877Z,11.00
2018-01-24T16:23:59.238Z,10.90
2018-01-24T16:26:27.957Z,10.80
2018-01-24T16:28:57.097Z,10.80
2018-01-24T16:31:25.486Z,10.80
2018-01-24T16:33:53.858Z,10.80
2018-01-24T16:36:22.945Z,10.70
2018-01-24T16:38:51.463Z,10.60
2018-01-24T16:41:19.736Z,10.60
2018-01-24T16:43:48.326Z,10.50
2018-01-24T16:46:16.493Z,10.40
2018-01-24T16:48:45.193Z,10.40
2018-01-24T16:51:13.713Z,10.40
2018-01-24T16:53:42.573Z,10.30
2018-01-24T16:56:11.973Z,10.20
2018-01-24T16:58:40.328Z,10.20
2018-01-24T17:01:08.913Z,10.20
2018-01-24T17:03:37.433Z,10.10
2018-01-24T17:06:06.655Z,10.10
2018-01-24T17:08:35.074Z,10.10
2018-01-24T17:11:03.273Z,10.00
2018-01-24T17:13:32.335Z,10.10
2018-01-24T17:16:00.491Z,10.00
2018-01-24T17:18:28.992Z,10.00
2018-01-24T17:20:57.464Z,10.00
2018-01-24T17:23:25.965Z,10.00
2018-01-24T17:25:54.325Z,10.00
2018-01-24T17:28:22.585Z,10.00
2018-01-24T17:30:50.984Z,10.00
2018-01-24T17:33:19.444Z,9.90
2018-01-24T17:35:48.046Z,9.90
2018-01-24T17:38:16.325Z,9.80
2018-01-24T17:40:44.703Z,9.80
2018-01-24T17:43:13.153Z,9.80
2018-01-24T17:45:41.712Z,9.70
2018-01-24T17:48:10.992Z,9.60
2018-01-24T17:50:40.193Z,9.50
2018-01-24T17:53:09.265Z,9.50
2018-01-24T17:55:38.244Z,9.50
2018-01-24T17:58:06.971Z,9.50
2018-01-24T18:00:35.426Z,9.50
2018-01-24T18:03:03.745Z,9.40
2018-01-24T18:05:32.164Z,9.40
2018-01-24T18:08:00.764Z,9.30
2018-01-24T18:10:29.184Z,9.40
2018-01-24T18:12:57.604Z,9.40
2018-01-24T18:15:27.524Z,9.40
2018-01-24T18:17:55.904Z,9.40
2018-01-24T18:20:24.684Z,9.40
2018-01-24T18:22:53.284Z,9.40
2018-01-24T18:25:21.624Z,9.40
2018-01-24T18:27:50.744Z,9.40
2018-01-24T18:30:19.344Z,9.50
2018-01-24T18:32:48.564Z,9.40
2018-01-24T18:35:17.103Z,9.40
2018-01-24T18:37:45.364Z,9.40
2018-01-24T18:40:13.449Z,9.40
2018-01-24T18:42:41.945Z,9.40
2018-01-24T18:45:10.526Z,9.30
2018-01-24T18:47:38.784Z,9.20
2018-01-24T18:50:07.171Z,9.20
2018-01-24T18:52:35.550Z,9.10
2018-01-24T18:55:04.845Z,9.20
2018-01-24T18:57:33.024Z,9.10
2018-01-24T19:00:01.284Z,9.10
2018-01-24T19:02:29.684Z,9.10
2018-01-24T19:04:58.184Z,9.10
2018-01-24T19:07:27.590Z,9.10
2018-01-24T19:09:55.844Z,9.10
2018-01-24T19:12:25.163Z,9.10
2018-01-24T19:14:54.384Z,9.10
2018-01-24T19:17:22.924Z,9.10
2018-01-24T19:19:52.323Z,9.00
2018-01-24T19:22:20.772Z,9.00
2018-01-24T19:24:49.163Z,8.90
2018-01-24T19:27:17.324Z,8.80
2018-01-24T19:29:45.824Z,8.80
2018-01-24T19:32:14.304Z,8.80
2018-01-24T19:34:42.688Z,8.80
2018-01-24T19:37:11.144Z,8.80
2018-01-24T19:39:39.324Z,8.70
2018-01-24T19:42:08.204Z,8.60
2018-01-24T19:44:36.504Z,8.60
2018-01-24T19:47:05.584Z,8.50
2018-01-24T19:49:33.864Z,8.50
2018-01-24T19:52:03.024Z,8.50
2018-01-24T19:54:31.145Z,8.50
2018-01-24T19:56:59.365Z,8.60
2018-01-24T19:59:27.484Z,8.60
2018-01-24T20:01:55.864Z,8.60
2018-01-24T20:04:24.368Z,8.60
2018-01-24T20:06:53.724Z,8.70
2018-01-24T20:09:22.464Z,8.60
2018-01-24T20:11:50.804Z,8.60
2018-01-24T20:14:19.004Z,8.50
2018-01-24T20:16:48.486Z,8.50
2018-01-24T20:19:16.764Z,8.50
2018-01-24T20:21:45.244Z,8.50
2018-01-24T20:24:14.323Z,8.50
2018-01-24T20:26:42.824Z,8.50
2018-01-24T20:29:11.205Z,8.50
2018-01-24T20:31:39.664Z,8.40
2018-01-24T20:34:08.132Z,8.40
2018-01-24T20:36:36.424Z,8.50
2018-01-24T20:39:04.904Z,8.40
2018-01-24T20:41:33.383Z,8.30
2018-01-24T20:44:01.664Z,8.20
2018-01-24T20:46:30.145Z,8.10
2018-01-24T20:48:58.465Z,8.00
2018-01-24T20:51:26.604Z,8.10
2018-01-24T20:53:55.884Z,8.00
2018-01-24T20:56:24.583Z,8.00
2018-01-24T20:58:53.590Z,8.10
2018-01-24T21:01:21.945Z,8.00
2018-01-24T21:03:50.124Z,8.00
2018-01-24T21:06:18.224Z,8.00
2018-01-24T21:08:47.664Z,8.00
2018-01-24T21:11:15.865Z,7.90
2018-01-24T21:13:44.584Z,7.90
2018-01-24T21:16:13.744Z,7.80
2018-01-24T21:18:42.405Z,7.80
2018-01-24T21:21:10.906Z,7.80
2018-01-24T21:23:39.425Z,7.70
2018-01-24T21:26:08.645Z,7.60
2018-01-24T21:28:49.065Z,7.60
2018-01-24T21:31:29.824Z,7.60
2018-01-24T21:34:23.704Z,7.60
2018-01-24T21:36:58.844Z,7.70
2018-01-24T21:39:28.185Z,7.70
2018-01-24T21:41:56.467Z,7.70
2018-01-24T21:44:24.786Z,7.70
2018-01-24T21:46:54.686Z,7.70
2018-01-24T21:49:23.184Z,7.70
2018-01-24T21:51:51.443Z,7.70
2018-01-24T21:54:19.944Z,7.70
2018-01-24T21:56:48.109Z,7.70
2018-01-24T21:59:16.404Z,7.70
2018-01-24T22:01:45.483Z,7.60
2018-01-24T22:04:13.544Z,7.60
2018-01-24T22:06:41.664Z,7.60
2018-01-24T22:09:09.886Z,7.60
2018-01-24T22:11:38.163Z,7.60
2018-01-24T22:14:06.863Z,7.70
2018-01-24T22:16:35.324Z,7.70
2018-01-24T22:19:03.724Z,7.60
2018-01-24T22:21:32.223Z,7.60
2018-01-24T22:24:01.646Z,7.70
2018-01-24T22:26:30.183Z,7.70
2018-01-24T22:28:58.544Z,7.70
2018-01-24T22:31:27.244Z,7.70
2018-01-24T22:33:55.423Z,7.60
2018-01-24T22:36:23.644Z,7.60
2018-01-24T22:38:52.064Z,7.60
2018-01-24T22:41:20.444Z,7.70
2018-01-24T22:43:48.626Z,7.80
2018-01-24T22:46:18.629Z,7.70
2018-01-24T22:48:46.824Z,7.70
2018-01-24T22:51:21.524Z,7.70
2018-01-24T22:53:49.624Z,7.70
2018-01-24T22:56:18.623Z,7.70
2018-01-24T22:58:47.684Z,7.80
2018-01-24T23:01:16.084Z,7.70
2018-01-24T23:03:45.063Z,7.70
2018-01-24T23:06:13.642Z,7.70
2018-01-24T23:08:42.504Z,7.60
2018-01-24T23:11:10.703Z,7.60
2018-01-24T23:13:39.104Z,7.70
2018-01-24T23:16:07.883Z,7.80
2018-01-24T23:18:36.143Z,7.70
2018-01-24T23:21:04.742Z,7.80
2018-01-24T23:23:33.803Z,7.80
2018-01-24T23:26:02.023Z,7.80
2018-01-24T23:28:31.402Z,7.70
2018-01-24T23:30:59.762Z,7.70
2018-01-24T23:33:28.102Z,7.70
2018-01-24T23:35:56.443Z,7.70
2018-01-24T23:38:25.623Z,7.70
2018-01-24T23:40:53.883Z,7.70
2018-01-24T23:43:22.182Z,7.70
2018-01-24T23:45:50.442Z,7.70
2018-01-24T23:48:18.822Z,7.70
2018-01-24T23:50:47.057Z,7.60
2018-01-24T23:53:15.102Z,7.60
2018-01-24T23:55:44.243Z,7.70
2018-01-24T23:58:12.343Z,7.70
